sensor_id;sensor_type;location;lat;lon;timestamp;temperature;humidity
52495;DHT22;38405;53.212;5.660;2023-08-20T00:00:56;14.60;99.90
52495;DHT22;38405;53.212;5.660;2023-08-20T00:03:22;14.60;99.90
52495;DHT22;38405;53.212;5.660;2023-08-20T00:05:49;14.60;99.90
52495;DHT22;38405;53.212;5.660;2023-08-20T00:08:14;14.50;99.90
52495;DHT22;38405;53.212;5.660;2023-08-20T00:10:40;14.50;99.90
52495;DHT22;38405;53.212;5.660;2023-08-20T00:13:05;14.60;99.90
52495;DHT22;38405;53.212;5.660;2023-08-20T00:15:31;14.50;99.90
52495;DHT22;38405;53.212;5.660;2023-08-20T00:17:57;14.50;99.90
52495;DHT22;38405;53.212;5.660;2023-08-20T00:20:24;14.50;99.90
52495;DHT22;38405;53.212;5.660;2023-08-20T00:22:50;14.50;99.90
52495;DHT22;38405;53.212;5.660;2023-08-20T00:25:17;14.50;99.90
52495;DHT22;38405;53.212;5.660;2023-08-20T00:27:43;14.50;99.90
52495;DHT22;38405;53.212;5.660;2023-08-20T00:30:09;14.50;99.90
52495;DHT22;38405;53.212;5.660;2023-08-20T00:32:36;14.50;99.90
52495;DHT22;38405;53.212;5.660;2023-08-20T00:35:02;14.50;99.90
52495;DHT22;38405;53.212;5.660;2023-08-20T00:37:28;14.40;99.90
52495;DHT22;38405;53.212;5.660;2023-08-20T00:39:54;14.40;99.90
52495;DHT22;38405;53.212;5.660;2023-08-20T00:42:20;14.40;99.90
52495;DHT22;38405;53.212;5.660;2023-08-20T00:44:46;14.30;99.90
52495;DHT22;38405;53.212;5.660;2023-08-20T00:47:12;14.30;99.90
52495;DHT22;38405;53.212;5.660;2023-08-20T00:49:39;14.30;99.90
52495;DHT22;38405;53.212;5.660;2023-08-20T00:52:08;14.20;99.90
52495;DHT22;38405;53.212;5.660;2023-08-20T00:54:34;14.30;99.90
52495;DHT22;38405;53.212;5.660;2023-08-20T00:56:59;14.30;99.90
52495;DHT22;38405;53.212;5.660;2023-08-20T00:59:27;14.30;99.90
52495;DHT22;38405;53.212;5.660;2023-08-20T01:01:53;14.40;99.90
52495;DHT22;38405;53.212;5.660;2023-08-20T01:04:18;14.40;99.90
52495;DHT22;38405;53.212;5.660;2023-08-20T01:06:53;14.40;99.90
52495;DHT22;38405;53.212;5.660;2023-08-20T01:12:06;14.40;99.90
52495;DHT22;38405;53.212;5.660;2023-08-20T01:14:32;14.30;99.90
52495;DHT22;38405;53.212;5.660;2023-08-20T01:16:58;14.30;99.90
52495;DHT22;38405;53.212;5.660;2023-08-20T01:19:23;14.30;99.90
52495;DHT22;38405;53.212;5.660;2023-08-20T01:29:40;14.20;99.90
52495;DHT22;38405;53.212;5.660;2023-08-20T01:32:07;14.20;99.90
52495;DHT22;38405;53.212;5.660;2023-08-20T01:34:33;14.30;99.90
52495;DHT22;38405;53.212;5.660;2023-08-20T01:36:59;14.40;99.90
52495;DHT22;38405;53.212;5.660;2023-08-20T01:39:24;14.40;99.90
52495;DHT22;38405;53.212;5.660;2023-08-20T01:41:50;14.60;99.90
52495;DHT22;38405;53.212;5.660;2023-08-20T01:44:16;14.60;99.90
52495;DHT22;38405;53.212;5.660;2023-08-20T01:46:41;14.70;99.90
52495;DHT22;38405;53.212;5.660;2023-08-20T01:49:07;14.80;99.90
52495;DHT22;38405;53.212;5.660;2023-08-20T01:51:33;14.80;99.90
52495;DHT22;38405;53.212;5.660;2023-08-20T01:53:58;14.80;99.90
52495;DHT22;38405;53.212;5.660;2023-08-20T01:56:24;14.70;99.90
52495;DHT22;38405;53.212;5.660;2023-08-20T01:58:50;14.60;99.90
52495;DHT22;38405;53.212;5.660;2023-08-20T02:01:15;14.50;99.90
52495;DHT22;38405;53.212;5.660;2023-08-20T02:03:41;14.40;99.90
52495;DHT22;38405;53.212;5.660;2023-08-20T02:06:07;14.30;99.90
52495;DHT22;38405;53.212;5.660;2023-08-20T02:08:32;14.30;99.90
52495;DHT22;38405;53.212;5.660;2023-08-20T02:11:04;14.20;99.90
52495;DHT22;38405;53.212;5.660;2023-08-20T02:13:31;14.20;99.90
52495;DHT22;38405;53.212;5.660;2023-08-20T02:16:01;14.20;99.90
52495;DHT22;38405;53.212;5.660;2023-08-20T02:18:30;14.20;99.90
52495;DHT22;38405;53.212;5.660;2023-08-20T02:20:56;14.20;99.90
52495;DHT22;38405;53.212;5.660;2023-08-20T02:23:22;14.20;99.90
52495;DHT22;38405;53.212;5.660;2023-08-20T02:25:48;14.20;99.90
52495;DHT22;38405;53.212;5.660;2023-08-20T02:28:14;14.20;99.90
52495;DHT22;38405;53.212;5.660;2023-08-20T02:30:44;14.20;99.90
52495;DHT22;38405;53.212;5.660;2023-08-20T02:33:10;14.20;99.90
52495;DHT22;38405;53.212;5.660;2023-08-20T02:35:37;14.30;99.90
52495;DHT22;38405;53.212;5.660;2023-08-20T02:38:02;14.30;99.90
52495;DHT22;38405;53.212;5.660;2023-08-20T02:40:31;14.30;99.90
52495;DHT22;38405;53.212;5.660;2023-08-20T02:42:57;14.20;99.90
52495;DHT22;38405;53.212;5.660;2023-08-20T02:45:23;14.20;99.90
52495;DHT22;38405;53.212;5.660;2023-08-20T02:47:49;14.10;99.90
52495;DHT22;38405;53.212;5.660;2023-08-20T02:50:17;14.00;99.90
52495;DHT22;38405;53.212;5.660;2023-08-20T02:52:43;13.90;99.90
52495;DHT22;38405;53.212;5.660;2023-08-20T02:55:09;13.80;99.90
52495;DHT22;38405;53.212;5.660;2023-08-20T02:57:35;13.70;99.90
52495;DHT22;38405;53.212;5.660;2023-08-20T03:00:00;13.70;99.90
52495;DHT22;38405;53.212;5.660;2023-08-20T03:02:26;13.60;99.90
52495;DHT22;38405;53.212;5.660;2023-08-20T03:04:52;13.60;99.90
52495;DHT22;38405;53.212;5.660;2023-08-20T03:07:18;13.60;99.90
52495;DHT22;38405;53.212;5.660;2023-08-20T03:09:44;13.60;99.90
52495;DHT22;38405;53.212;5.660;2023-08-20T03:12:09;13.60;99.90
52495;DHT22;38405;53.212;5.660;2023-08-20T03:14:35;13.60;99.90
52495;DHT22;38405;53.212;5.660;2023-08-20T03:17:01;13.60;99.90
52495;DHT22;38405;53.212;5.660;2023-08-20T03:19:32;13.60;99.90
52495;DHT22;38405;53.212;5.660;2023-08-20T03:21:58;13.60;99.90
52495;DHT22;38405;53.212;5.660;2023-08-20T03:24:24;13.60;99.90
52495;DHT22;38405;53.212;5.660;2023-08-20T03:26:49;13.60;99.90
52495;DHT22;38405;53.212;5.660;2023-08-20T03:29:15;13.50;99.90
52495;DHT22;38405;53.212;5.660;2023-08-20T03:31:41;13.50;99.90
52495;DHT22;38405;53.212;5.660;2023-08-20T03:34:06;13.40;99.90
52495;DHT22;38405;53.212;5.660;2023-08-20T03:36:34;13.50;99.90
52495;DHT22;38405;53.212;5.660;2023-08-20T03:38:59;13.50;99.90
52495;DHT22;38405;53.212;5.660;2023-08-20T03:41:25;13.50;99.90
52495;DHT22;38405;53.212;5.660;2023-08-20T03:43:51;13.60;99.90
52495;DHT22;38405;53.212;5.660;2023-08-20T03:46:16;13.60;99.90
52495;DHT22;38405;53.212;5.660;2023-08-20T03:48:42;13.60;99.90
52495;DHT22;38405;53.212;5.660;2023-08-20T03:51:08;13.60;99.90
52495;DHT22;38405;53.212;5.660;2023-08-20T03:53:33;13.60;99.90
52495;DHT22;38405;53.212;5.660;2023-08-20T03:55:59;13.70;99.90
52495;DHT22;38405;53.212;5.660;2023-08-20T03:58:25;13.80;99.90
52495;DHT22;38405;53.212;5.660;2023-08-20T04:00:50;13.80;99.90
52495;DHT22;38405;53.212;5.660;2023-08-20T04:03:16;14.00;99.90
52495;DHT22;38405;53.212;5.660;2023-08-20T04:05:45;14.10;99.90
52495;DHT22;38405;53.212;5.660;2023-08-20T04:08:10;14.10;99.90
52495;DHT22;38405;53.212;5.660;2023-08-20T04:10:42;14.20;99.90
52495;DHT22;38405;53.212;5.660;2023-08-20T04:13:09;14.20;99.90
52495;DHT22;38405;53.212;5.660;2023-08-20T04:15:35;14.20;99.90
52495;DHT22;38405;53.212;5.660;2023-08-20T04:18:00;14.10;99.90
52495;DHT22;38405;53.212;5.660;2023-08-20T04:20:26;14.00;99.90
52495;DHT22;38405;53.212;5.660;2023-08-20T04:22:52;14.00;99.90
52495;DHT22;38405;53.212;5.660;2023-08-20T04:25:17;13.90;99.90
52495;DHT22;38405;53.212;5.660;2023-08-20T04:27:43;13.90;99.90
52495;DHT22;38405;53.212;5.660;2023-08-20T04:30:09;13.90;99.90
52495;DHT22;38405;53.212;5.660;2023-08-20T04:32:35;13.90;99.90
52495;DHT22;38405;53.212;5.660;2023-08-20T04:35:01;13.90;99.90
52495;DHT22;38405;53.212;5.660;2023-08-20T04:37:26;13.80;99.90
52495;DHT22;38405;53.212;5.660;2023-08-20T04:39:52;13.80;99.90
52495;DHT22;38405;53.212;5.660;2023-08-20T04:42:18;13.80;99.90
52495;DHT22;38405;53.212;5.660;2023-08-20T04:44:43;13.80;99.90
52495;DHT22;38405;53.212;5.660;2023-08-20T04:47:12;13.80;99.90
52495;DHT22;38405;53.212;5.660;2023-08-20T04:49:38;13.70;99.90
52495;DHT22;38405;53.212;5.660;2023-08-20T04:52:04;13.70;99.90
52495;DHT22;38405;53.212;5.660;2023-08-20T04:54:30;13.60;99.90
52495;DHT22;38405;53.212;5.660;2023-08-20T04:56:56;13.60;99.90
52495;DHT22;38405;53.212;5.660;2023-08-20T04:59:21;13.60;99.90
52495;DHT22;38405;53.212;5.660;2023-08-20T05:01:47;13.50;99.90
52495;DHT22;38405;53.212;5.660;2023-08-20T05:04:13;13.60;99.90
52495;DHT22;38405;53.212;5.660;2023-08-20T05:06:39;13.60;99.90
52495;DHT22;38405;53.212;5.660;2023-08-20T05:09:04;13.70;99.90
52495;DHT22;38405;53.212;5.660;2023-08-20T05:11:30;13.80;99.90
52495;DHT22;38405;53.212;5.660;2023-08-20T05:13:58;13.90;99.90
52495;DHT22;38405;53.212;5.660;2023-08-20T05:16:24;14.00;99.90
52495;DHT22;38405;53.212;5.660;2023-08-20T05:18:49;14.10;99.90
52495;DHT22;38405;53.212;5.660;2023-08-20T05:21:15;14.10;99.90
52495;DHT22;38405;53.212;5.660;2023-08-20T05:23:44;14.10;99.90
52495;DHT22;38405;53.212;5.660;2023-08-20T05:26:10;14.10;99.90
52495;DHT22;38405;53.212;5.660;2023-08-20T05:28:35;14.20;99.90
52495;DHT22;38405;53.212;5.660;2023-08-20T05:31:01;14.20;99.90
52495;DHT22;38405;53.212;5.660;2023-08-20T05:33:26;14.30;99.90
52495;DHT22;38405;53.212;5.660;2023-08-20T05:35:52;14.40;99.90
52495;DHT22;38405;53.212;5.660;2023-08-20T05:38:18;14.50;99.90
52495;DHT22;38405;53.212;5.660;2023-08-20T05:40:43;14.60;99.90
52495;DHT22;38405;53.212;5.660;2023-08-20T05:43:09;14.80;99.90
52495;DHT22;38405;53.212;5.660;2023-08-20T05:45:35;14.90;99.90
52495;DHT22;38405;53.212;5.660;2023-08-20T05:48:01;15.00;99.90
52495;DHT22;38405;53.212;5.660;2023-08-20T05:50:26;15.10;99.90
52495;DHT22;38405;53.212;5.660;2023-08-20T05:52:52;15.20;99.90
52495;DHT22;38405;53.212;5.660;2023-08-20T05:55:18;15.30;99.90
52495;DHT22;38405;53.212;5.660;2023-08-20T05:57:44;15.40;99.90
52495;DHT22;38405;53.212;5.660;2023-08-20T06:00:11;15.50;99.90
52495;DHT22;38405;53.212;5.660;2023-08-20T06:02:37;15.60;99.90
52495;DHT22;38405;53.212;5.660;2023-08-20T06:05:03;15.80;99.90
52495;DHT22;38405;53.212;5.660;2023-08-20T06:07:33;15.80;99.90
52495;DHT22;38405;53.212;5.660;2023-08-20T06:09:59;15.90;99.90
52495;DHT22;38405;53.212;5.660;2023-08-20T06:12:25;16.00;99.90
52495;DHT22;38405;53.212;5.660;2023-08-20T06:14:50;16.20;99.90
52495;DHT22;38405;53.212;5.660;2023-08-20T06:17:16;16.30;99.90
52495;DHT22;38405;53.212;5.660;2023-08-20T06:19:42;16.40;99.90
52495;DHT22;38405;53.212;5.660;2023-08-20T06:22:07;16.60;99.90
52495;DHT22;38405;53.212;5.660;2023-08-20T06:24:33;16.80;99.90
52495;DHT22;38405;53.212;5.660;2023-08-20T06:26:59;16.90;99.90
52495;DHT22;38405;53.212;5.660;2023-08-20T06:29:25;17.10;99.90
52495;DHT22;38405;53.212;5.660;2023-08-20T06:31:50;17.20;99.90
52495;DHT22;38405;53.212;5.660;2023-08-20T06:34:16;17.40;99.90
52495;DHT22;38405;53.212;5.660;2023-08-20T06:36:42;17.50;99.90
52495;DHT22;38405;53.212;5.660;2023-08-20T06:39:08;17.70;99.90
52495;DHT22;38405;53.212;5.660;2023-08-20T06:41:34;17.80;99.90
52495;DHT22;38405;53.212;5.660;2023-08-20T06:44:01;17.90;99.90
52495;DHT22;38405;53.212;5.660;2023-08-20T06:46:27;18.10;99.90
52495;DHT22;38405;53.212;5.660;2023-08-20T06:48:52;18.20;99.90
52495;DHT22;38405;53.212;5.660;2023-08-20T06:51:22;18.50;99.90
52495;DHT22;38405;53.212;5.660;2023-08-20T06:53:48;19.60;99.90
52495;DHT22;38405;53.212;5.660;2023-08-20T06:56:14;21.00;99.90
52495;DHT22;38405;53.212;5.660;2023-08-20T06:58:40;22.30;99.90
52495;DHT22;38405;53.212;5.660;2023-08-20T07:01:07;23.50;99.90
52495;DHT22;38405;53.212;5.660;2023-08-20T07:03:43;24.50;99.90
52495;DHT22;38405;53.212;5.660;2023-08-20T07:06:10;25.40;99.90
52495;DHT22;38405;53.212;5.660;2023-08-20T07:08:39;26.10;99.90
52495;DHT22;38405;53.212;5.660;2023-08-20T07:11:06;26.70;99.90
52495;DHT22;38405;53.212;5.660;2023-08-20T07:13:32;27.20;99.90
52495;DHT22;38405;53.212;5.660;2023-08-20T07:15:58;27.60;99.90
52495;DHT22;38405;53.212;5.660;2023-08-20T07:18:23;28.00;99.90
52495;DHT22;38405;53.212;5.660;2023-08-20T07:20:50;28.50;99.90
52495;DHT22;38405;53.212;5.660;2023-08-20T07:23:16;28.70;99.90
52495;DHT22;38405;53.212;5.660;2023-08-20T07:25:42;29.20;99.90
52495;DHT22;38405;53.212;5.660;2023-08-20T07:28:08;29.40;99.90
52495;DHT22;38405;53.212;5.660;2023-08-20T07:30:37;29.40;99.90
52495;DHT22;38405;53.212;5.660;2023-08-20T07:33:03;29.20;99.90
52495;DHT22;38405;53.212;5.660;2023-08-20T07:35:29;29.10;99.90
52495;DHT22;38405;53.212;5.660;2023-08-20T07:37:54;28.70;99.90
52495;DHT22;38405;53.212;5.660;2023-08-20T07:40:20;28.20;99.90
52495;DHT22;38405;53.212;5.660;2023-08-20T07:42:46;27.60;99.90
52495;DHT22;38405;53.212;5.660;2023-08-20T07:45:12;27.20;99.90
52495;DHT22;38405;53.212;5.660;2023-08-20T07:47:38;27.80;99.90
52495;DHT22;38405;53.212;5.660;2023-08-20T07:50:05;28.20;99.90
52495;DHT22;38405;53.212;5.660;2023-08-20T07:52:31;28.20;99.90
52495;DHT22;38405;53.212;5.660;2023-08-20T07:54:57;28.30;99.90
52495;DHT22;38405;53.212;5.660;2023-08-20T07:57:23;28.90;99.90
52495;DHT22;38405;53.212;5.660;2023-08-20T07:59:49;29.90;99.90
52495;DHT22;38405;53.212;5.660;2023-08-20T08:02:15;30.20;99.90
52495;DHT22;38405;53.212;5.660;2023-08-20T08:04:42;30.10;99.90
52495;DHT22;38405;53.212;5.660;2023-08-20T08:07:08;29.40;99.90
52495;DHT22;38405;53.212;5.660;2023-08-20T08:09:34;29.20;99.90
52495;DHT22;38405;53.212;5.660;2023-08-20T08:12:00;28.90;99.90
52495;DHT22;38405;53.212;5.660;2023-08-20T08:14:26;29.40;99.90
52495;DHT22;38405;53.212;5.660;2023-08-20T08:16:52;30.20;99.90
52495;DHT22;38405;53.212;5.660;2023-08-20T08:19:18;30.30;99.90
52495;DHT22;38405;53.212;5.660;2023-08-20T08:21:45;30.60;99.90
52495;DHT22;38405;53.212;5.660;2023-08-20T08:24:11;30.40;99.90
52495;DHT22;38405;53.212;5.660;2023-08-20T08:26:37;29.30;99.90
52495;DHT22;38405;53.212;5.660;2023-08-20T08:29:03;28.30;99.90
52495;DHT22;38405;53.212;5.660;2023-08-20T08:31:29;27.40;99.90
52495;DHT22;38405;53.212;5.660;2023-08-20T08:33:55;27.00;99.90
52495;DHT22;38405;53.212;5.660;2023-08-20T08:36:21;26.60;99.90
52495;DHT22;38405;53.212;5.660;2023-08-20T08:38:47;27.40;99.90
52495;DHT22;38405;53.212;5.660;2023-08-20T08:41:13;28.80;99.90
52495;DHT22;38405;53.212;5.660;2023-08-20T08:43:40;29.90;99.90
52495;DHT22;38405;53.212;5.660;2023-08-20T08:46:15;29.70;99.90
52495;DHT22;38405;53.212;5.660;2023-08-20T08:48:42;28.70;99.90
52495;DHT22;38405;53.212;5.660;2023-08-20T08:51:09;29.10;99.90
52495;DHT22;38405;53.212;5.660;2023-08-20T08:53:35;29.40;99.90
52495;DHT22;38405;53.212;5.660;2023-08-20T08:56:01;29.50;99.90
52495;DHT22;38405;53.212;5.660;2023-08-20T08:58:28;30.20;99.90
52495;DHT22;38405;53.212;5.660;2023-08-20T09:00:54;30.90;99.70
52495;DHT22;38405;53.212;5.660;2023-08-20T09:03:20;31.30;99.10
52495;DHT22;38405;53.212;5.660;2023-08-20T09:05:50;31.50;98.90
52495;DHT22;38405;53.212;5.660;2023-08-20T09:08:30;31.50;98.30
52495;DHT22;38405;53.212;5.660;2023-08-20T09:10:58;31.00;98.40
52495;DHT22;38405;53.212;5.660;2023-08-20T09:13:25;31.20;98.80
52495;DHT22;38405;53.212;5.660;2023-08-20T09:15:54;31.50;98.30
52495;DHT22;38405;53.212;5.660;2023-08-20T09:18:20;31.80;98.20
52495;DHT22;38405;53.212;5.660;2023-08-20T09:20:48;31.20;97.90
52495;DHT22;38405;53.212;5.660;2023-08-20T09:23:17;30.30;98.20
52495;DHT22;38405;53.212;5.660;2023-08-20T09:25:43;30.10;98.30
52495;DHT22;38405;53.212;5.660;2023-08-20T09:28:09;30.20;98.50
52495;DHT22;38405;53.212;5.660;2023-08-20T09:30:35;30.30;98.40
52495;DHT22;38405;53.212;5.660;2023-08-20T09:35:30;30.10;98.50
52495;DHT22;38405;53.212;5.660;2023-08-20T09:38:00;29.90;98.70
52495;DHT22;38405;53.212;5.660;2023-08-20T09:40:27;29.40;99.00
52495;DHT22;38405;53.212;5.660;2023-08-20T09:42:54;29.20;99.70
52495;DHT22;38405;53.212;5.660;2023-08-20T09:45:20;29.10;99.90
52495;DHT22;38405;53.212;5.660;2023-08-20T09:47:49;28.80;99.70
52495;DHT22;38405;53.212;5.660;2023-08-20T09:50:17;28.70;99.90
52495;DHT22;38405;53.212;5.660;2023-08-20T09:53:17;28.50;99.90
52495;DHT22;38405;53.212;5.660;2023-08-20T09:55:44;28.50;99.90
52495;DHT22;38405;53.212;5.660;2023-08-20T09:58:10;28.50;99.90
52495;DHT22;38405;53.212;5.660;2023-08-20T10:00:37;28.30;99.90
52495;DHT22;38405;53.212;5.660;2023-08-20T10:03:04;27.90;99.90
52495;DHT22;38405;53.212;5.660;2023-08-20T10:05:29;27.40;99.90
52495;DHT22;38405;53.212;5.660;2023-08-20T10:07:58;27.00;99.90
52495;DHT22;38405;53.212;5.660;2023-08-20T10:10:24;26.80;99.90
52495;DHT22;38405;53.212;5.660;2023-08-20T10:12:51;26.40;99.90
52495;DHT22;38405;53.212;5.660;2023-08-20T10:15:17;26.10;99.90
52495;DHT22;38405;53.212;5.660;2023-08-20T10:17:45;26.20;99.90
52495;DHT22;38405;53.212;5.660;2023-08-20T10:20:14;26.40;99.90
52495;DHT22;38405;53.212;5.660;2023-08-20T10:22:42;26.70;99.90
52495;DHT22;38405;53.212;5.660;2023-08-20T10:25:10;27.00;99.90
52495;DHT22;38405;53.212;5.660;2023-08-20T10:27:38;27.30;99.90
52495;DHT22;38405;53.212;5.660;2023-08-20T10:30:11;27.40;99.90
52495;DHT22;38405;53.212;5.660;2023-08-20T10:32:45;27.60;99.40
52495;DHT22;38405;53.212;5.660;2023-08-20T10:35:27;27.30;98.60
52495;DHT22;38405;53.212;5.660;2023-08-20T10:38:07;27.00;98.60
52495;DHT22;38405;53.212;5.660;2023-08-20T10:40:55;27.10;99.40
52495;DHT22;38405;53.212;5.660;2023-08-20T10:46:16;27.30;99.00
52495;DHT22;38405;53.212;5.660;2023-08-20T10:48:52;27.40;98.80
52495;DHT22;38405;53.212;5.660;2023-08-20T10:51:32;27.50;98.70
52495;DHT22;38405;53.212;5.660;2023-08-20T10:56:55;27.40;98.90
52495;DHT22;38405;53.212;5.660;2023-08-20T10:59:27;27.60;98.50
52495;DHT22;38405;53.212;5.660;2023-08-20T11:01:54;27.50;98.40
52495;DHT22;38405;53.212;5.660;2023-08-20T11:04:25;27.40;98.40
52495;DHT22;38405;53.212;5.660;2023-08-20T11:06:56;27.20;98.50
52495;DHT22;38405;53.212;5.660;2023-08-20T11:09:27;27.20;98.60
52495;DHT22;38405;53.212;5.660;2023-08-20T11:11:53;27.30;98.30
52495;DHT22;38405;53.212;5.660;2023-08-20T11:14:19;27.20;98.10
52495;DHT22;38405;53.212;5.660;2023-08-20T11:16:46;27.00;98.20
52495;DHT22;38405;53.212;5.660;2023-08-20T11:19:13;27.00;98.40
52495;DHT22;38405;53.212;5.660;2023-08-20T11:21:43;26.90;98.20
52495;DHT22;38405;53.212;5.660;2023-08-20T11:24:10;26.70;98.20
52495;DHT22;38405;53.212;5.660;2023-08-20T11:26:38;26.90;98.70
52495;DHT22;38405;53.212;5.660;2023-08-20T11:29:12;27.20;98.60
52495;DHT22;38405;53.212;5.660;2023-08-20T11:31:38;27.30;98.10
52495;DHT22;38405;53.212;5.660;2023-08-20T11:34:05;27.00;98.10
52495;DHT22;38405;53.212;5.660;2023-08-20T11:36:31;26.80;98.30
52495;DHT22;38405;53.212;5.660;2023-08-20T11:38:57;26.80;98.20
52495;DHT22;38405;53.212;5.660;2023-08-20T11:41:24;26.90;98.40
52495;DHT22;38405;53.212;5.660;2023-08-20T11:43:52;26.90;98.60
52495;DHT22;38405;53.212;5.660;2023-08-20T11:46:23;26.80;98.50
52495;DHT22;38405;53.212;5.660;2023-08-20T11:51:30;26.10;98.30
52495;DHT22;38405;53.212;5.660;2023-08-20T11:53:57;25.80;98.90
52495;DHT22;38405;53.212;5.660;2023-08-20T11:56:23;25.60;99.20
52495;DHT22;38405;53.212;5.660;2023-08-20T11:58:52;25.60;99.30
52495;DHT22;38405;53.212;5.660;2023-08-20T12:01:21;25.70;99.40
52495;DHT22;38405;53.212;5.660;2023-08-20T12:03:46;25.80;99.50
52495;DHT22;38405;53.212;5.660;2023-08-20T12:06:22;25.70;99.40
52495;DHT22;38405;53.212;5.660;2023-08-20T12:08:49;25.60;99.50
52495;DHT22;38405;53.212;5.660;2023-08-20T12:11:15;25.60;99.70
52495;DHT22;38405;53.212;5.660;2023-08-20T12:13:41;25.60;99.80
52495;DHT22;38405;53.212;5.660;2023-08-20T12:16:06;25.60;99.80
52495;DHT22;38405;53.212;5.660;2023-08-20T12:18:32;25.60;99.90
52495;DHT22;38405;53.212;5.660;2023-08-20T12:20:58;25.50;99.90
52495;DHT22;38405;53.212;5.660;2023-08-20T12:23:23;25.50;99.70
52495;DHT22;38405;53.212;5.660;2023-08-20T12:25:51;25.50;99.90
52495;DHT22;38405;53.212;5.660;2023-08-20T12:28:16;25.60;99.80
52495;DHT22;38405;53.212;5.660;2023-08-20T12:30:43;25.50;99.40
52495;DHT22;38405;53.212;5.660;2023-08-20T12:33:09;25.30;99.30
52495;DHT22;38405;53.212;5.660;2023-08-20T12:35:36;25.20;99.50
52495;DHT22;38405;53.212;5.660;2023-08-20T12:38:02;25.00;99.70
52495;DHT22;38405;53.212;5.660;2023-08-20T12:40:28;24.90;99.80
52495;DHT22;38405;53.212;5.660;2023-08-20T12:42:54;24.80;99.80
52495;DHT22;38405;53.212;5.660;2023-08-20T12:45:20;24.70;99.70
52495;DHT22;38405;53.212;5.660;2023-08-20T12:47:46;24.60;99.50
52495;DHT22;38405;53.212;5.660;2023-08-20T12:50:11;24.50;99.70
52495;DHT22;38405;53.212;5.660;2023-08-20T12:52:39;24.50;99.90
52495;DHT22;38405;53.212;5.660;2023-08-20T12:55:05;24.60;99.90
52495;DHT22;38405;53.212;5.660;2023-08-20T12:57:34;24.60;99.90
52495;DHT22;38405;53.212;5.660;2023-08-20T13:00:00;24.60;99.90
52495;DHT22;38405;53.212;5.660;2023-08-20T13:02:26;24.60;99.90
52495;DHT22;38405;53.212;5.660;2023-08-20T13:04:52;24.60;99.90
52495;DHT22;38405;53.212;5.660;2023-08-20T13:07:18;24.60;99.90
52495;DHT22;38405;53.212;5.660;2023-08-20T13:09:44;24.50;99.90
52495;DHT22;38405;53.212;5.660;2023-08-20T13:12:10;24.30;99.90
52495;DHT22;38405;53.212;5.660;2023-08-20T13:14:41;24.20;99.90
52495;DHT22;38405;53.212;5.660;2023-08-20T13:17:07;24.10;99.90
52495;DHT22;38405;53.212;5.660;2023-08-20T13:19:33;23.90;99.90
52495;DHT22;38405;53.212;5.660;2023-08-20T13:21:59;23.80;99.90
52495;DHT22;38405;53.212;5.660;2023-08-20T13:24:25;23.70;99.90
52495;DHT22;38405;53.212;5.660;2023-08-20T13:26:51;23.70;99.90
52495;DHT22;38405;53.212;5.660;2023-08-20T13:29:17;23.70;99.90
52495;DHT22;38405;53.212;5.660;2023-08-20T13:31:42;23.60;99.90
52495;DHT22;38405;53.212;5.660;2023-08-20T13:34:09;23.50;99.90
52495;DHT22;38405;53.212;5.660;2023-08-20T13:36:34;23.60;99.90
52495;DHT22;38405;53.212;5.660;2023-08-20T13:39:00;23.60;99.90
52495;DHT22;38405;53.212;5.660;2023-08-20T13:41:26;23.80;99.90
52495;DHT22;38405;53.212;5.660;2023-08-20T13:43:52;23.70;99.90
52495;DHT22;38405;53.212;5.660;2023-08-20T13:46:19;23.70;99.90
52495;DHT22;38405;53.212;5.660;2023-08-20T13:48:44;23.60;99.90
52495;DHT22;38405;53.212;5.660;2023-08-20T13:51:10;23.60;99.90
52495;DHT22;38405;53.212;5.660;2023-08-20T13:53:35;23.70;99.90
52495;DHT22;38405;53.212;5.660;2023-08-20T13:56:02;23.80;99.90
52495;DHT22;38405;53.212;5.660;2023-08-20T13:58:27;23.80;99.90
52495;DHT22;38405;53.212;5.660;2023-08-20T14:00:53;24.00;99.90
52495;DHT22;38405;53.212;5.660;2023-08-20T14:03:19;24.00;99.90
52495;DHT22;38405;53.212;5.660;2023-08-20T14:05:44;23.80;99.90
52495;DHT22;38405;53.212;5.660;2023-08-20T14:08:11;23.70;99.90
52495;DHT22;38405;53.212;5.660;2023-08-20T14:10:36;23.60;99.90
52495;DHT22;38405;53.212;5.660;2023-08-20T14:13:02;23.60;99.90
52495;DHT22;38405;53.212;5.660;2023-08-20T14:15:28;23.60;99.90
52495;DHT22;38405;53.212;5.660;2023-08-20T14:17:54;23.60;99.90
52495;DHT22;38405;53.212;5.660;2023-08-20T14:20:20;23.70;99.90
52495;DHT22;38405;53.212;5.660;2023-08-20T14:22:45;23.70;99.90
52495;DHT22;38405;53.212;5.660;2023-08-20T14:25:11;23.70;99.90
52495;DHT22;38405;53.212;5.660;2023-08-20T14:27:37;23.70;99.90
52495;DHT22;38405;53.212;5.660;2023-08-20T14:30:03;23.60;99.90
52495;DHT22;38405;53.212;5.660;2023-08-20T14:32:30;23.60;99.90
52495;DHT22;38405;53.212;5.660;2023-08-20T14:34:55;23.60;99.90
52495;DHT22;38405;53.212;5.660;2023-08-20T14:37:21;23.60;99.90
52495;DHT22;38405;53.212;5.660;2023-08-20T14:39:49;23.60;99.90
52495;DHT22;38405;53.212;5.660;2023-08-20T14:42:15;23.70;99.90
52495;DHT22;38405;53.212;5.660;2023-08-20T14:44:40;23.70;99.90
52495;DHT22;38405;53.212;5.660;2023-08-20T14:47:06;23.80;99.90
52495;DHT22;38405;53.212;5.660;2023-08-20T14:49:32;23.80;99.90
52495;DHT22;38405;53.212;5.660;2023-08-20T14:51:58;23.80;99.90
52495;DHT22;38405;53.212;5.660;2023-08-20T14:54:25;23.80;99.90
52495;DHT22;38405;53.212;5.660;2023-08-20T14:56:50;23.70;99.90
52495;DHT22;38405;53.212;5.660;2023-08-20T14:59:16;23.70;99.90
52495;DHT22;38405;53.212;5.660;2023-08-20T15:01:42;23.70;99.90
52495;DHT22;38405;53.212;5.660;2023-08-20T15:04:07;23.60;99.90
52495;DHT22;38405;53.212;5.660;2023-08-20T15:06:33;23.60;99.90
52495;DHT22;38405;53.212;5.660;2023-08-20T15:08:59;23.50;99.90
52495;DHT22;38405;53.212;5.660;2023-08-20T15:11:24;23.50;99.90
52495;DHT22;38405;53.212;5.660;2023-08-20T15:13:50;23.40;99.90
52495;DHT22;38405;53.212;5.660;2023-08-20T15:16:17;23.30;99.90
52495;DHT22;38405;53.212;5.660;2023-08-20T15:18:43;23.20;99.90
52495;DHT22;38405;53.212;5.660;2023-08-20T15:21:08;23.10;99.90
52495;DHT22;38405;53.212;5.660;2023-08-20T15:23:36;23.10;99.90
52495;DHT22;38405;53.212;5.660;2023-08-20T15:26:01;23.10;99.90
52495;DHT22;38405;53.212;5.660;2023-08-20T15:28:28;23.00;99.90
52495;DHT22;38405;53.212;5.660;2023-08-20T15:30:55;23.10;99.90
52495;DHT22;38405;53.212;5.660;2023-08-20T15:33:21;23.10;99.90
52495;DHT22;38405;53.212;5.660;2023-08-20T15:35:47;23.10;99.90
52495;DHT22;38405;53.212;5.660;2023-08-20T15:38:13;23.10;99.90
52495;DHT22;38405;53.212;5.660;2023-08-20T15:40:39;23.10;99.90
52495;DHT22;38405;53.212;5.660;2023-08-20T15:43:05;23.10;99.90
52495;DHT22;38405;53.212;5.660;2023-08-20T15:45:31;23.20;99.90
52495;DHT22;38405;53.212;5.660;2023-08-20T15:47:56;23.10;99.90